createdAt,value
2023-05-12T00:00:47.949Z,100.00
2023-05-12T00:02:28.448Z,100.00
2023-05-12T00:03:14.592Z,100.00
2023-05-12T00:05:41.050Z,100.00
2023-05-12T00:07:28.332Z,100.00
2023-05-12T00:08:07.495Z,100.00
2023-05-12T00:10:35.582Z,100.00
2023-05-12T00:12:28.396Z,100.00
2023-05-12T00:13:02.589Z,100.00
2023-05-12T00:15:29.047Z,100.00
2023-05-12T00:17:28.452Z,100.00
2023-05-12T00:17:55.452Z,100.00
2023-05-12T00:20:22.182Z,100.00
2023-05-12T00:22:28.437Z,100.00
2023-05-12T00:22:48.678Z,100.00
2023-05-12T00:25:15.005Z,100.00
2023-05-12T00:27:28.492Z,100.00
2023-05-12T00:27:41.443Z,100.00
2023-05-12T00:30:08.492Z,100.00
2023-05-12T00:32:28.568Z,100.00
2023-05-12T00:32:34.854Z,100.00
2023-05-12T00:35:01.205Z,100.00
2023-05-12T00:37:28.337Z,100.00
2023-05-12T00:37:28.550Z,100.00
2023-05-12T00:39:55.230Z,100.00
2023-05-12T00:42:21.688Z,100.00
2023-05-12T00:42:28.548Z,100.00
2023-05-12T00:44:48.108Z,100.00
2023-05-12T00:47:14.573Z,100.00
2023-05-12T00:47:28.816Z,100.00
2023-05-12T00:49:43.373Z,100.00
2023-05-12T00:52:09.878Z,100.00
2023-05-12T00:52:28.707Z,100.00
2023-05-12T00:54:37.743Z,100.00
2023-05-12T00:57:04.438Z,100.00
2023-05-12T00:57:28.750Z,100.00
2023-05-12T00:59:30.908Z,100.00
2023-05-12T01:01:57.581Z,100.00
2023-05-12T01:02:28.830Z,100.00
2023-05-12T01:04:24.519Z,100.00
2023-05-12T01:06:53.699Z,100.00
2023-05-12T01:07:28.805Z,100.00
2023-05-12T01:09:20.910Z,100.00
2023-05-12T01:11:47.280Z,100.00
2023-05-12T01:12:28.852Z,100.00
2023-05-12T01:14:13.667Z,100.00
2023-05-12T01:16:44.264Z,100.00
2023-05-12T01:17:29.008Z,100.00
2023-05-12T01:19:19.482Z,100.00
2023-05-12T01:21:46.010Z,100.00
2023-05-12T01:22:28.980Z,100.00
2023-05-12T01:24:14.737Z,100.00
2023-05-12T01:26:41.506Z,100.00
2023-05-12T01:27:29.030Z,100.00
2023-05-12T01:29:07.971Z,100.00
2023-05-12T01:31:34.650Z,100.00
2023-05-12T01:32:29.103Z,100.00
2023-05-12T01:34:01.136Z,100.00
2023-05-12T01:36:27.458Z,100.00
2023-05-12T01:37:29.083Z,100.00
2023-05-12T01:38:55.085Z,100.00
2023-05-12T01:41:21.479Z,100.00
2023-05-12T01:42:29.076Z,100.00
2023-05-12T01:43:47.857Z,100.00
2023-05-12T01:46:14.282Z,100.00
2023-05-12T01:47:29.241Z,100.00
2023-05-12T01:48:40.889Z,100.00
2023-05-12T01:51:08.752Z,100.00
2023-05-12T01:52:29.141Z,100.00
2023-05-12T01:53:35.252Z,100.00
2023-05-12T01:56:01.725Z,100.00
2023-05-12T01:57:29.180Z,100.00
2023-05-12T01:58:28.082Z,100.00
2023-05-12T02:00:56.659Z,100.00
2023-05-12T02:02:29.295Z,100.00
2023-05-12T02:03:23.141Z,100.00
2023-05-12T02:05:49.640Z,100.00
2023-05-12T02:07:29.264Z,100.00
2023-05-12T02:08:15.999Z,100.00
2023-05-12T02:10:42.373Z,100.00
2023-05-12T02:12:29.273Z,100.00
2023-05-12T02:13:08.911Z,100.00
2023-05-12T02:15:35.284Z,100.00
2023-05-12T02:17:29.362Z,100.00
2023-05-12T02:18:03.677Z,100.00
2023-05-12T02:20:30.218Z,100.00
2023-05-12T02:22:29.342Z,100.00
2023-05-12T02:22:56.944Z,100.00
2023-05-12T02:25:23.279Z,100.00
2023-05-12T02:27:29.371Z,100.00
2023-05-12T02:27:49.623Z,100.00
2023-05-12T02:30:16.166Z,100.00
2023-05-12T02:32:29.377Z,100.00
2023-05-12T02:32:42.521Z,100.00
2023-05-12T02:35:09.342Z,100.00
2023-05-12T02:37:29.406Z,100.00
2023-05-12T02:37:36.203Z,100.00
2023-05-12T02:40:13.693Z,100.00
2023-05-12T02:42:29.416Z,100.00
2023-05-12T02:42:40.292Z,100.00
2023-05-12T02:45:07.324Z,100.00
2023-05-12T02:47:29.609Z,100.00
2023-05-12T02:47:33.698Z,100.00
2023-05-12T02:50:00.253Z,100.00
2023-05-12T02:52:26.704Z,100.00
2023-05-12T02:52:29.497Z,100.00
2023-05-12T02:54:53.181Z,100.00
2023-05-12T02:57:19.540Z,100.00
2023-05-12T02:57:29.547Z,100.00
2023-05-12T02:59:45.899Z,100.00
2023-05-12T03:02:12.343Z,100.00
2023-05-12T03:02:29.651Z,100.00
2023-05-12T03:04:41.084Z,100.00
2023-05-12T03:07:11.357Z,100.00
2023-05-12T03:07:29.649Z,100.00
2023-05-12T03:09:37.740Z,100.00
2023-05-12T03:12:04.468Z,100.00
2023-05-12T03:12:29.641Z,100.00
2023-05-12T03:14:30.867Z,100.00
2023-05-12T03:16:57.303Z,100.00
2023-05-12T03:17:29.688Z,100.00
2023-05-12T03:19:23.730Z,100.00
2023-05-12T03:21:50.206Z,100.00
2023-05-12T03:22:29.648Z,100.00
2023-05-12T03:24:16.552Z,100.00
2023-05-12T03:26:42.928Z,100.00
2023-05-12T03:27:29.687Z,100.00
2023-05-12T03:29:09.318Z,100.00
2023-05-12T03:31:36.407Z,100.00
2023-05-12T03:32:29.729Z,100.00
2023-05-12T03:34:02.866Z,100.00
2023-05-12T03:36:29.208Z,100.00
2023-05-12T03:37:29.779Z,100.00
2023-05-12T03:38:55.709Z,100.00
2023-05-12T03:41:22.063Z,100.00
2023-05-12T03:42:29.756Z,100.00
2023-05-12T03:43:48.623Z,100.00
2023-05-12T03:46:15.167Z,100.00
2023-05-12T03:47:29.988Z,100.00
2023-05-12T03:48:41.618Z,100.00
2023-05-12T03:51:07.988Z,100.00
2023-05-12T03:52:29.779Z,100.00
2023-05-12T03:53:34.362Z,100.00
2023-05-12T03:56:04.837Z,100.00
2023-05-12T03:57:29.838Z,100.00
2023-05-12T03:58:31.830Z,100.00
2023-05-12T04:00:58.205Z,100.00
2023-05-12T04:02:29.965Z,100.00
2023-05-12T04:03:24.639Z,100.00
2023-05-12T04:05:51.095Z,100.00
2023-05-12T04:07:29.941Z,100.00
2023-05-12T04:08:17.500Z,100.00
2023-05-12T04:10:43.864Z,100.00
2023-05-12T04:12:29.904Z,100.00
2023-05-12T04:13:10.228Z,100.00
2023-05-12T04:15:36.594Z,100.00
2023-05-12T04:17:30.039Z,100.00
2023-05-12T04:18:03.823Z,100.00
2023-05-12T04:20:30.224Z,100.00
2023-05-12T04:22:29.999Z,100.00
2023-05-12T04:22:56.795Z,100.00
2023-05-12T04:25:23.213Z,100.00
2023-05-12T04:27:30.037Z,100.00
2023-05-12T04:27:49.708Z,100.00
2023-05-12T04:30:16.670Z,100.00
2023-05-12T04:32:30.129Z,100.00
2023-05-12T04:32:43.031Z,100.00
2023-05-12T04:35:09.532Z,100.00
2023-05-12T04:37:30.151Z,100.00
2023-05-12T04:37:35.970Z,100.00
2023-05-12T04:40:02.795Z,100.00
2023-05-12T04:42:29.158Z,100.00
2023-05-12T04:42:30.202Z,100.00
2023-05-12T04:44:56.570Z,100.00
2023-05-12T04:47:23.025Z,100.00
2023-05-12T04:47:30.354Z,100.00
2023-05-12T04:49:49.465Z,100.00
2023-05-12T04:52:15.961Z,100.00
2023-05-12T04:52:30.224Z,100.00
2023-05-12T04:54:42.253Z,100.00
2023-05-12T04:57:08.748Z,100.00
2023-05-12T04:57:30.242Z,100.00
2023-05-12T04:59:36.055Z,100.00
2023-05-12T05:02:02.536Z,100.00
2023-05-12T05:02:30.446Z,100.00
2023-05-12T05:04:29.214Z,100.00
2023-05-12T05:06:55.668Z,100.00
2023-05-12T05:07:30.306Z,100.00
2023-05-12T05:09:22.047Z,100.00
2023-05-12T05:11:48.368Z,100.00
2023-05-12T05:12:30.315Z,100.00
2023-05-12T05:14:14.758Z,100.00
2023-05-12T05:16:41.493Z,100.00
2023-05-12T05:17:30.381Z,100.00
2023-05-12T05:19:19.476Z,100.00
2023-05-12T05:21:48.875Z,100.00
2023-05-12T05:22:30.382Z,100.00
2023-05-12T05:24:15.307Z,100.00
2023-05-12T05:26:42.013Z,100.00
2023-05-12T05:27:30.427Z,100.00
2023-05-12T05:29:08.518Z,100.00
2023-05-12T05:31:34.911Z,100.00
2023-05-12T05:32:30.440Z,100.00
2023-05-12T05:34:01.352Z,100.00
2023-05-12T05:36:28.926Z,100.00
2023-05-12T05:37:30.447Z,100.00
2023-05-12T05:38:56.882Z,100.00
2023-05-12T05:41:23.626Z,100.00
2023-05-12T05:42:30.504Z,100.00
2023-05-12T05:43:50.141Z,100.00
2023-05-12T05:46:16.567Z,100.00
2023-05-12T05:47:30.630Z,100.00
2023-05-12T05:48:43.006Z,100.00
2023-05-12T05:51:11.404Z,100.00
2023-05-12T05:52:30.530Z,100.00
2023-05-12T05:53:37.868Z,100.00
2023-05-12T05:56:04.528Z,100.00
2023-05-12T05:57:30.564Z,100.00
2023-05-12T05:58:30.947Z,100.00
2023-05-12T06:00:57.273Z,100.00
2023-05-12T06:02:30.654Z,100.00
2023-05-12T06:03:23.647Z,100.00
2023-05-12T06:05:50.173Z,100.00
2023-05-12T06:07:30.594Z,100.00
2023-05-12T06:08:16.741Z,100.00
2023-05-12T06:10:43.047Z,100.00
2023-05-12T06:12:30.654Z,100.00
2023-05-12T06:13:09.444Z,100.00
2023-05-12T06:15:36.117Z,100.00
2023-05-12T06:17:32.579Z,100.00
2023-05-12T06:18:02.489Z,100.00
2023-05-12T06:20:28.933Z,100.00
2023-05-12T06:22:30.678Z,100.00
2023-05-12T06:22:55.386Z,100.00
2023-05-12T06:25:22.007Z,100.00
2023-05-12T06:27:30.750Z,100.00
2023-05-12T06:27:52.798Z,100.00
2023-05-12T06:30:19.261Z,100.00
2023-05-12T06:32:30.877Z,100.00
2023-05-12T06:32:45.680Z,100.00
2023-05-12T06:35:12.336Z,100.00
2023-05-12T06:37:30.829Z,100.00
2023-05-12T06:37:38.705Z,100.00
2023-05-12T06:40:06.040Z,100.00
2023-05-12T06:42:30.787Z,100.00
2023-05-12T06:42:32.432Z,100.00
2023-05-12T06:45:00.682Z,100.00
2023-05-12T06:47:27.140Z,100.00
2023-05-12T06:47:30.960Z,100.00
2023-05-12T06:49:53.739Z,100.00
2023-05-12T06:52:20.878Z,100.00
2023-05-12T06:52:30.886Z,100.00
2023-05-12T06:54:47.209Z,100.00
2023-05-12T06:57:13.621Z,100.00
2023-05-12T06:57:31.018Z,100.00
2023-05-12T06:59:40.005Z,100.00
2023-05-12T07:02:06.674Z,100.00
2023-05-12T07:02:31.114Z,100.00
2023-05-12T07:04:33.185Z,100.00
2023-05-12T07:06:59.661Z,100.00
2023-05-12T07:07:31.013Z,100.00
2023-05-12T07:09:26.521Z,99.92
2023-05-12T07:11:52.947Z,99.57
2023-05-12T07:12:31.047Z,99.57
2023-05-12T07:14:19.321Z,98.57
2023-05-12T07:16:46.671Z,97.19
2023-05-12T07:17:31.163Z,97.19
2023-05-12T07:19:13.467Z,97.16
2023-05-12T07:21:39.857Z,96.71
2023-05-12T07:22:31.121Z,96.71
2023-05-12T07:24:06.442Z,97.15
2023-05-12T07:26:33.229Z,96.63
2023-05-12T07:27:31.172Z,96.63
2023-05-12T07:29:00.727Z,96.23
2023-05-12T07:31:27.137Z,94.61
2023-05-12T07:32:31.255Z,94.61
2023-05-12T07:33:53.591Z,94.01
2023-05-12T07:36:21.974Z,93.21
2023-05-12T07:37:31.200Z,93.21
2023-05-12T07:38:48.570Z,92.27
2023-05-12T07:41:15.334Z,91.53
2023-05-12T07:42:31.251Z,91.53
2023-05-12T07:43:41.693Z,92.23
2023-05-12T07:46:08.056Z,91.32
2023-05-12T07:47:31.361Z,91.32
2023-05-12T07:48:39.772Z,88.90
2023-05-12T07:51:07.802Z,89.22
2023-05-12T07:52:31.385Z,89.22
2023-05-12T07:53:34.544Z,88.53
2023-05-12T07:56:01.035Z,87.88
2023-05-12T07:57:31.352Z,87.88
2023-05-12T07:58:27.498Z,88.22
2023-05-12T08:00:54.518Z,86.95
2023-05-12T08:02:31.451Z,86.95
2023-05-12T08:03:21.222Z,86.91
2023-05-12T08:05:47.710Z,85.15
2023-05-12T08:07:31.403Z,85.15
2023-05-12T08:08:16.612Z,84.25
2023-05-12T08:10:44.201Z,84.23
2023-05-12T08:12:31.448Z,84.23
2023-05-12T08:13:10.749Z,82.66
2023-05-12T08:15:37.457Z,82.82
2023-05-12T08:17:31.521Z,82.82
2023-05-12T08:18:04.131Z,82.14
2023-05-12T08:20:31.466Z,82.67
2023-05-12T08:22:31.519Z,82.67
2023-05-12T08:22:57.832Z,82.01
2023-05-12T08:25:24.263Z,82.20
2023-05-12T08:27:31.515Z,82.20
2023-05-12T08:27:52.709Z,82.46
2023-05-12T08:30:19.118Z,82.07
2023-05-12T08:32:31.571Z,82.07
2023-05-12T08:32:45.480Z,81.88
2023-05-12T08:35:11.893Z,80.83
2023-05-12T08:37:33.635Z,80.83
2023-05-12T08:37:38.362Z,80.90
2023-05-12T08:40:13.646Z,81.77
2023-05-12T08:42:31.653Z,81.77
2023-05-12T08:42:44.487Z,81.49
2023-05-12T08:45:11.749Z,81.28
2023-05-12T08:47:31.717Z,81.28
2023-05-12T08:47:38.754Z,80.94
2023-05-12T08:50:05.838Z,81.53
2023-05-12T08:52:34.024Z,81.61
2023-05-12T08:52:34.175Z,81.61
2023-05-12T08:55:18.281Z,80.62
2023-05-12T08:57:31.698Z,80.62
2023-05-12T08:57:48.241Z,80.33
2023-05-12T09:00:16.177Z,80.13
2023-05-12T09:02:44.547Z,80.13
2023-05-12T09:02:53.306Z,80.50
2023-05-12T09:05:21.422Z,81.00
2023-05-12T09:07:31.743Z,81.00
2023-05-12T09:07:50.575Z,79.92
2023-05-12T09:10:33.732Z,80.96
2023-05-12T09:12:31.756Z,80.96
2023-05-12T09:13:26.383Z,80.64
2023-05-12T09:15:56.442Z,78.87
2023-05-12T09:17:31.816Z,78.87
2023-05-12T09:18:23.001Z,77.87
2023-05-12T09:20:49.357Z,77.77
2023-05-12T09:22:31.861Z,77.77
2023-05-12T09:23:20.666Z,77.40
2023-05-12T09:25:47.234Z,77.60
2023-05-12T09:27:31.895Z,77.60
2023-05-12T09:28:14.471Z,76.63
2023-05-12T09:30:42.585Z,76.33
2023-05-12T09:32:31.949Z,76.33
2023-05-12T09:33:11.751Z,76.07
2023-05-12T09:35:40.070Z,74.35
2023-05-12T09:37:31.931Z,74.35
2023-05-12T09:38:10.572Z,72.39
2023-05-12T09:40:37.091Z,73.52
2023-05-12T09:42:31.955Z,73.52
2023-05-12T09:43:05.957Z,74.17
2023-05-12T09:45:36.651Z,71.87
2023-05-12T09:47:32.027Z,71.87
2023-05-12T09:48:13.889Z,71.59
2023-05-12T09:50:48.814Z,70.02
2023-05-12T09:52:31.999Z,70.02
2023-05-12T09:53:17.444Z,69.85
2023-05-12T09:55:44.780Z,69.48
2023-05-12T09:57:32.021Z,69.48
2023-05-12T09:58:11.880Z,69.59
2023-05-12T10:02:32.162Z,67.98
2023-05-12T10:03:17.606Z,66.95
2023-05-12T10:05:57.819Z,65.98
2023-05-12T10:07:32.056Z,65.98
2023-05-12T10:08:28.438Z,65.33
2023-05-12T10:10:57.856Z,65.90
2023-05-12T10:12:32.085Z,65.90
2023-05-12T10:13:24.413Z,66.70
2023-05-12T10:15:54.843Z,67.25
2023-05-12T10:17:32.100Z,67.25
2023-05-12T10:18:21.481Z,65.50
2023-05-12T10:20:48.837Z,66.25
2023-05-12T10:22:32.453Z,66.25
2023-05-12T10:23:18.114Z,64.60
2023-05-12T10:25:44.979Z,62.81
2023-05-12T10:27:32.184Z,62.81
2023-05-12T10:28:11.814Z,61.22
2023-05-12T10:30:42.959Z,60.66
2023-05-12T10:32:32.235Z,60.66
2023-05-12T10:33:11.437Z,60.88
2023-05-12T10:35:39.914Z,60.33
2023-05-12T10:37:32.292Z,60.33
2023-05-12T10:38:11.619Z,60.68
2023-05-12T10:40:51.408Z,60.32
2023-05-12T10:42:32.269Z,60.32
2023-05-12T10:43:25.651Z,61.44
2023-05-12T10:46:15.233Z,58.79
2023-05-12T10:47:32.349Z,58.79
2023-05-12T10:48:54.904Z,60.84
2023-05-12T10:51:26.446Z,58.97
2023-05-12T10:52:32.288Z,58.97
2023-05-12T10:53:58.362Z,59.36
2023-05-12T10:56:31.286Z,58.34
2023-05-12T10:57:32.960Z,58.34
2023-05-12T10:59:17.737Z,59.84
2023-05-12T11:02:05.120Z,57.52
2023-05-12T11:02:33.790Z,57.52
2023-05-12T11:04:50.610Z,58.49
2023-05-12T11:07:22.525Z,56.71
2023-05-12T11:07:33.061Z,56.71
2023-05-12T11:09:58.360Z,56.13
2023-05-12T11:12:27.347Z,55.75
2023-05-12T11:12:32.838Z,55.75
2023-05-12T11:14:54.086Z,55.45
2023-05-12T11:17:20.664Z,54.32
2023-05-12T11:17:32.675Z,54.32
2023-05-12T11:19:49.436Z,53.41
2023-05-12T11:22:21.369Z,51.66
2023-05-12T11:22:32.424Z,51.66
2023-05-12T11:24:48.891Z,52.37
2023-05-12T11:27:17.790Z,52.16
2023-05-12T11:27:32.489Z,52.16
2023-05-12T11:29:46.934Z,51.21
2023-05-12T11:32:15.654Z,52.13
2023-05-12T11:32:32.700Z,52.13
2023-05-12T11:34:42.094Z,52.43
2023-05-12T11:37:08.438Z,53.71
2023-05-12T11:37:32.661Z,53.71
2023-05-12T11:39:36.198Z,52.34
2023-05-12T11:42:12.014Z,50.94
2023-05-12T11:42:32.614Z,50.94
2023-05-12T11:44:47.725Z,52.57
2023-05-12T11:47:15.503Z,52.77
2023-05-12T11:47:32.797Z,52.77
2023-05-12T11:49:50.308Z,51.85
2023-05-12T11:52:17.802Z,50.04
2023-05-12T11:52:32.478Z,50.04
2023-05-12T11:54:57.250Z,50.01
2023-05-12T11:57:35.084Z,50.25
2023-05-12T11:57:35.252Z,50.25
2023-05-12T12:00:07.592Z,49.84
2023-05-12T12:02:32.804Z,49.84
2023-05-12T12:02:35.776Z,52.39
2023-05-12T12:05:02.365Z,53.65
2023-05-12T12:07:33.288Z,57.18
2023-05-12T12:07:33.462Z,57.18
2023-05-12T12:10:11.642Z,58.29
2023-05-12T12:12:32.488Z,58.29
2023-05-12T12:12:38.344Z,60.36
2023-05-12T12:15:05.278Z,61.70
2023-05-12T12:17:31.664Z,62.33
2023-05-12T12:17:32.515Z,62.33
2023-05-12T12:19:58.759Z,60.75
2023-05-12T12:22:25.239Z,61.46
2023-05-12T12:22:32.529Z,61.46
2023-05-12T12:24:51.668Z,61.63
2023-05-12T12:27:18.053Z,59.43
2023-05-12T12:27:32.508Z,59.43
2023-05-12T12:29:44.471Z,60.74
2023-05-12T12:32:10.956Z,62.84
2023-05-12T12:32:32.552Z,62.84
2023-05-12T12:34:37.640Z,62.66
2023-05-12T12:37:04.168Z,62.86
2023-05-12T12:37:32.518Z,62.86
2023-05-12T12:39:30.596Z,63.37
2023-05-12T12:41:56.971Z,63.89
2023-05-12T12:42:32.501Z,63.89
2023-05-12T12:44:23.338Z,64.02
2023-05-12T12:46:49.723Z,65.03
2023-05-12T12:47:32.578Z,65.03
2023-05-12T12:49:16.168Z,64.35
2023-05-12T12:51:46.091Z,63.62
2023-05-12T12:52:32.564Z,63.62
2023-05-12T12:54:13.421Z,64.30
2023-05-12T12:56:39.808Z,67.04
2023-05-12T12:57:32.506Z,67.04
2023-05-12T12:59:08.368Z,67.88
2023-05-12T13:01:35.096Z,66.89
2023-05-12T13:02:32.658Z,66.89
2023-05-12T13:04:01.633Z,67.11
2023-05-12T13:06:29.132Z,66.40
2023-05-12T13:07:32.532Z,66.40
2023-05-12T13:08:56.398Z,66.73
2023-05-12T13:11:22.950Z,63.90
2023-05-12T13:12:32.544Z,63.90
2023-05-12T13:13:49.257Z,63.75
2023-05-12T13:16:15.856Z,61.82
2023-05-12T13:17:32.515Z,61.82
2023-05-12T13:18:42.378Z,60.74
2023-05-12T13:21:08.823Z,60.48
2023-05-12T13:22:32.509Z,60.48
2023-05-12T13:23:35.242Z,57.96
2023-05-12T13:26:01.649Z,56.76
2023-05-12T13:27:32.498Z,56.76
2023-05-12T13:28:28.496Z,52.47
2023-05-12T13:30:54.921Z,53.11
2023-05-12T13:32:32.534Z,53.11
2023-05-12T13:33:21.555Z,52.63
2023-05-12T13:35:47.962Z,58.51
2023-05-12T13:37:32.629Z,58.51
2023-05-12T13:38:14.442Z,61.12
2023-05-12T13:40:41.510Z,63.21
2023-05-12T13:42:32.556Z,63.21
2023-05-12T13:43:08.379Z,67.07
2023-05-12T13:45:34.749Z,68.13
2023-05-12T13:47:32.561Z,68.13
2023-05-12T13:48:01.233Z,68.34
2023-05-12T13:50:27.784Z,68.01
2023-05-12T13:52:32.507Z,68.01
2023-05-12T13:52:54.093Z,67.73
2023-05-12T13:55:21.608Z,69.47
2023-05-12T13:57:32.555Z,69.47
2023-05-12T13:57:48.897Z,69.45
2023-05-12T14:00:17.079Z,69.14
2023-05-12T14:02:32.743Z,69.14
2023-05-12T14:02:43.710Z,68.75
2023-05-12T14:05:10.563Z,71.28
2023-05-12T14:07:32.535Z,71.28
2023-05-12T14:07:36.972Z,75.40
2023-05-12T14:10:03.559Z,76.14
2023-05-12T14:12:30.089Z,77.81
2023-05-12T14:12:32.537Z,77.81
2023-05-12T14:15:04.572Z,78.83
2023-05-12T14:17:32.540Z,78.83
2023-05-12T14:17:38.737Z,78.74
2023-05-12T14:20:06.782Z,78.03
2023-05-12T14:22:33.482Z,76.56
2023-05-12T14:22:33.616Z,76.56
2023-05-12T14:25:00.442Z,74.36
2023-05-12T14:27:26.830Z,74.90
2023-05-12T14:27:32.565Z,74.90
2023-05-12T14:29:53.293Z,76.29
2023-05-12T14:32:19.716Z,76.20
2023-05-12T14:32:32.543Z,76.20
2023-05-12T14:34:46.049Z,75.40
2023-05-12T14:37:12.452Z,74.52
2023-05-12T14:37:32.522Z,74.52
2023-05-12T14:39:38.828Z,73.10
2023-05-12T14:42:05.498Z,72.23
2023-05-12T14:42:32.532Z,72.23
2023-05-12T14:44:32.289Z,69.76
2023-05-12T14:46:58.781Z,69.92
2023-05-12T14:47:32.572Z,69.92
2023-05-12T14:49:25.087Z,69.70
2023-05-12T14:51:51.407Z,69.82
2023-05-12T14:52:32.551Z,69.82
2023-05-12T14:54:25.119Z,69.07
2023-05-12T14:56:52.586Z,67.73
2023-05-12T14:57:32.541Z,67.73
2023-05-12T14:59:19.179Z,68.69
2023-05-12T15:01:46.009Z,67.48
2023-05-12T15:02:32.695Z,67.48
2023-05-12T15:04:13.187Z,68.96
2023-05-12T15:06:40.048Z,69.47
2023-05-12T15:07:32.526Z,69.47
2023-05-12T15:09:07.256Z,68.42
2023-05-12T15:11:33.760Z,67.72
2023-05-12T15:12:32.548Z,67.72
2023-05-12T15:14:00.240Z,68.54
2023-05-12T15:16:27.892Z,68.93
2023-05-12T15:17:32.628Z,68.93
2023-05-12T15:18:54.444Z,67.92
2023-05-12T15:21:20.947Z,68.08
2023-05-12T15:22:32.578Z,68.08
2023-05-12T15:23:47.280Z,67.24
2023-05-12T15:26:27.242Z,68.68
2023-05-12T15:27:32.553Z,68.68
2023-05-12T15:28:59.336Z,67.49
2023-05-12T15:31:29.479Z,67.13
2023-05-12T15:32:32.594Z,67.13
2023-05-12T15:33:56.824Z,68.12
2023-05-12T15:36:23.209Z,66.79
2023-05-12T15:37:32.553Z,66.79
2023-05-12T15:38:49.607Z,67.41
2023-05-12T15:41:18.396Z,66.67
2023-05-12T15:42:33.451Z,66.67
2023-05-12T15:43:44.778Z,62.48
2023-05-12T15:46:11.616Z,62.01
2023-05-12T15:47:32.587Z,62.01
2023-05-12T15:48:39.264Z,62.66
2023-05-12T15:51:06.422Z,62.33
2023-05-12T15:52:32.531Z,62.33
2023-05-12T15:53:32.863Z,63.42
2023-05-12T15:56:04.008Z,63.85
2023-05-12T15:57:32.565Z,63.85
2023-05-12T15:58:31.191Z,65.87
2023-05-12T16:00:57.651Z,63.33
2023-05-12T16:02:32.759Z,63.33
2023-05-12T16:03:24.096Z,58.82
2023-05-12T16:05:51.069Z,58.95
2023-05-12T16:07:32.580Z,58.95
2023-05-12T16:08:17.905Z,58.58
2023-05-12T16:10:44.456Z,57.69
2023-05-12T16:12:32.538Z,57.69
2023-05-12T16:13:10.861Z,58.38
2023-05-12T16:15:37.265Z,59.55
2023-05-12T16:17:32.578Z,59.55
2023-05-12T16:18:03.919Z,59.97
2023-05-12T16:20:30.506Z,60.29
2023-05-12T16:22:32.576Z,60.29
2023-05-12T16:22:56.967Z,61.32
2023-05-12T16:25:23.568Z,61.51
2023-05-12T16:27:32.558Z,61.51
2023-05-12T16:27:50.229Z,63.27
2023-05-12T16:30:19.384Z,64.30
2023-05-12T16:32:32.564Z,64.30
2023-05-12T16:32:47.240Z,63.80
2023-05-12T16:35:13.868Z,64.76
2023-05-12T16:37:32.764Z,64.76
2023-05-12T16:37:40.290Z,65.07
2023-05-12T16:40:07.509Z,65.02
2023-05-12T16:42:32.583Z,65.02
2023-05-12T16:42:33.889Z,65.75
2023-05-12T16:45:00.308Z,66.80
2023-05-12T16:47:26.783Z,67.01
2023-05-12T16:47:32.575Z,67.01
2023-05-12T16:49:53.554Z,67.83
2023-05-12T16:52:20.179Z,67.84
2023-05-12T16:52:32.590Z,67.84
2023-05-12T16:54:47.032Z,67.58
2023-05-12T16:57:13.476Z,66.75
2023-05-12T16:57:32.561Z,66.75
2023-05-12T16:59:39.858Z,66.33
2023-05-12T17:02:06.808Z,66.37
2023-05-12T17:02:32.751Z,66.37
2023-05-12T17:04:33.339Z,66.29
2023-05-12T17:06:59.808Z,66.61
2023-05-12T17:07:32.590Z,66.61
2023-05-12T17:09:27.105Z,66.47
2023-05-12T17:11:53.628Z,65.91
2023-05-12T17:12:32.568Z,65.91
2023-05-12T17:14:23.399Z,64.54
2023-05-12T17:16:49.803Z,64.91
2023-05-12T17:17:32.615Z,64.91
2023-05-12T17:19:16.315Z,65.90
2023-05-12T17:21:42.726Z,65.81
2023-05-12T17:22:32.638Z,65.81
2023-05-12T17:24:09.226Z,66.19
2023-05-12T17:26:35.750Z,66.68
2023-05-12T17:27:32.552Z,66.68
2023-05-12T17:29:02.355Z,67.00
2023-05-12T17:31:28.829Z,68.90
2023-05-12T17:32:32.665Z,68.90
2023-05-12T17:33:55.478Z,70.21
2023-05-12T17:36:22.013Z,70.88
2023-05-12T17:37:32.631Z,70.88
2023-05-12T17:38:49.805Z,71.50
2023-05-12T17:41:16.369Z,72.72
2023-05-12T17:42:32.590Z,72.72
2023-05-12T17:43:42.817Z,73.90
2023-05-12T17:46:09.389Z,73.46
2023-05-12T17:47:32.618Z,73.46
2023-05-12T17:48:36.308Z,74.65
2023-05-12T17:51:05.136Z,72.65
2023-05-12T17:52:32.550Z,72.65
2023-05-12T17:53:32.276Z,68.42
2023-05-12T17:55:59.616Z,69.05
2023-05-12T17:57:32.569Z,69.05
2023-05-12T17:58:26.173Z,70.14
2023-05-12T18:00:52.678Z,70.28
2023-05-12T18:02:32.731Z,70.28
2023-05-12T18:03:23.297Z,69.09
2023-05-12T18:05:51.553Z,69.30
2023-05-12T18:07:32.621Z,69.30
2023-05-12T18:08:18.057Z,69.28
2023-05-12T18:10:44.900Z,68.48
2023-05-12T18:12:32.577Z,68.48
2023-05-12T18:13:11.463Z,67.19
2023-05-12T18:15:38.288Z,66.98
2023-05-12T18:17:32.769Z,66.98
2023-05-12T18:18:05.163Z,67.94
2023-05-12T18:20:31.551Z,68.32
2023-05-12T18:22:32.579Z,68.32
2023-05-12T18:22:57.865Z,69.00
2023-05-12T18:25:24.316Z,70.17
2023-05-12T18:27:32.611Z,70.17
2023-05-12T18:27:51.315Z,68.25
2023-05-12T18:30:17.773Z,66.62
2023-05-12T18:32:32.574Z,66.62
2023-05-12T18:32:44.239Z,66.35
2023-05-12T18:35:10.720Z,67.03
2023-05-12T18:37:32.598Z,67.03
2023-05-12T18:37:37.112Z,67.53
2023-05-12T18:40:05.033Z,69.00
2023-05-12T18:42:31.551Z,70.05
2023-05-12T18:42:32.598Z,70.05
2023-05-12T18:44:57.914Z,71.09
2023-05-12T18:47:24.279Z,71.92
2023-05-12T18:47:32.626Z,71.92
2023-05-12T18:49:50.642Z,72.19
2023-05-12T18:52:17.500Z,73.07
2023-05-12T18:52:32.587Z,73.07
2023-05-12T18:54:46.894Z,74.26
2023-05-12T18:57:15.285Z,74.85
2023-05-12T18:57:32.610Z,74.85
2023-05-12T18:59:41.742Z,75.46
2023-05-12T19:02:08.378Z,76.06
2023-05-12T19:02:32.675Z,76.06
2023-05-12T19:04:34.838Z,76.04
2023-05-12T19:07:01.245Z,78.15
2023-05-12T19:07:32.640Z,78.15
2023-05-12T19:09:27.652Z,78.78
2023-05-12T19:11:54.010Z,80.57
2023-05-12T19:12:32.620Z,80.57
2023-05-12T19:14:21.147Z,82.06
2023-05-12T19:16:47.745Z,83.52
2023-05-12T19:17:32.593Z,83.52
2023-05-12T19:19:14.344Z,84.64
2023-05-12T19:21:40.841Z,86.32
2023-05-12T19:22:32.590Z,86.32
2023-05-12T19:24:08.382Z,85.91
2023-05-12T19:26:34.751Z,85.89
2023-05-12T19:27:32.597Z,85.89
2023-05-12T19:29:01.949Z,86.00
2023-05-12T19:31:28.467Z,85.35
2023-05-12T19:32:32.660Z,85.35
2023-05-12T19:33:54.873Z,85.65
2023-05-12T19:36:21.244Z,85.63
2023-05-12T19:37:32.614Z,85.63
2023-05-12T19:38:47.672Z,85.35
2023-05-12T19:41:14.065Z,85.52
2023-05-12T19:42:32.571Z,85.52
2023-05-12T19:43:40.570Z,85.77
2023-05-12T19:46:07.594Z,86.12
2023-05-12T19:47:32.604Z,86.12
2023-05-12T19:48:34.063Z,86.45
2023-05-12T19:51:00.494Z,87.29
2023-05-12T19:52:32.599Z,87.29
2023-05-12T19:53:26.896Z,88.01
2023-05-12T19:55:55.709Z,88.37
2023-05-12T19:57:32.602Z,88.37
2023-05-12T19:58:22.109Z,89.50
2023-05-12T20:00:48.812Z,90.02
2023-05-12T20:02:32.742Z,90.02
2023-05-12T20:03:15.606Z,91.42
2023-05-12T20:05:42.160Z,92.11
2023-05-12T20:07:32.597Z,92.11
2023-05-12T20:08:08.516Z,93.44
2023-05-12T20:10:35.017Z,93.74
2023-05-12T20:12:32.597Z,93.74
2023-05-12T20:13:03.628Z,93.37
2023-05-12T20:15:31.210Z,93.80
2023-05-12T20:17:32.665Z,93.80
2023-05-12T20:17:58.235Z,93.55
2023-05-12T20:20:24.832Z,94.52
2023-05-12T20:22:32.611Z,94.52
2023-05-12T20:22:51.643Z,95.06
2023-05-12T20:25:18.210Z,95.42
2023-05-12T20:27:32.601Z,95.42
2023-05-12T20:27:45.134Z,95.99
2023-05-12T20:30:12.544Z,98.56
2023-05-12T20:32:32.660Z,98.56
2023-05-12T20:32:39.063Z,99.33
2023-05-12T20:35:05.910Z,99.52
2023-05-12T20:37:33.117Z,99.96
2023-05-12T20:37:33.335Z,99.96
2023-05-12T20:39:59.575Z,100.00
2023-05-12T20:42:26.047Z,100.00
2023-05-12T20:42:32.611Z,100.00
2023-05-12T20:44:52.379Z,100.00
2023-05-12T20:47:19.118Z,100.00
2023-05-12T20:47:32.747Z,100.00
2023-05-12T20:49:45.554Z,100.00
2023-05-12T20:52:11.979Z,100.00
2023-05-12T20:52:32.659Z,100.00
2023-05-12T20:54:49.278Z,100.00
2023-05-12T20:57:15.682Z,100.00
2023-05-12T20:57:32.665Z,100.00
2023-05-12T20:59:42.025Z,100.00
2023-05-12T21:02:10.936Z,100.00